KMGM/MGM METAR and TAF weather

Enter ICAO airport designator
Station Type Date Time Source
KMGM METAR 2020/06/03 22:53 UTC NOAA

KMGM 032253Z 27005KT 10SM CLR 29/22 A2993 RMK AO2 SLP131 T02890222


Station Type Date Time Source
KMGM Decoded METAR 2020/06/03 22:53 UTC NOAA

MONTGOMERY DANNELLY FIELD, AL, United States (KMGM) 32-18N 86-24W 63M
Jun 03, 2020 - 06:53 PM EDT / 2020.06.03 2253 UTC
Wind: from the W (270 degrees) at 6 MPH (5 KT):0
Visibility: 10 mile(s):0
Sky conditions: clear
Temperature: 84.0 F (28.9 C)
Dew Point: 72.0 F (22.2 C)
Relative Humidity: 67%
Pressure (altimeter): 29.93 in. Hg (1013 hPa)
ob: KMGM 032253Z 27005KT 10SM CLR 29/22 A2993 RMK AO2 SLP131 T02890222
cycle: 23

Station Type Date Time Source
KMGM TAF 2020/06/03 18:30 UTC NOAA

TAF KMGM 031728Z 0318/0418 VRB03KT P6SM SCT030 BKN045
FM031900 00000KT P6SM VCTS SCT100CB
FM040300 00000KT P6SM BKN250

Example: see airport list